Terminal Aerodrome Forecast
Issued by NWS

Home | Current Version | Previous Version | Text Only | Print | Product List | Glossary On
Versions: 1 2 3 4 5 6 7 8 9 10 11 12 13 14 15 16 17 18 19
000
FTUS42 KEYW 182300
TAFMTH
TAF
KMTH 182331Z 1900/1924 15008KT P6SM FEW022 BKN090
     FM190600 18008KT P6SM VCSH SCT020 BKN090
     FM190800 22008KT P6SM VCTS SCT020CB BKN090
      TEMPO 1908/1912 VRB15G25KT 3SM TSRA BKN020CB OVC090
     FM191500 29011KT P6SM BKN025
     FM192100 30010KT P6SM SCT025=

USA.gov is the U.S. government's official web portal to all federal, state and local government web resources and services.